sensor_id;sensor_type;location;lat;lon;timestamp;P1;durP1;ratioP1;P2;durP2;ratioP2
21601;SDS011;10963;50.934;4.668;2023-04-19T00:01:18;39.80;;;22.70;;
21601;SDS011;10963;50.934;4.668;2023-04-19T00:03:47;37.10;;;23.50;;
21601;SDS011;10963;50.934;4.668;2023-04-19T00:06:15;42.60;;;25.27;;
21601;SDS011;10963;50.934;4.668;2023-04-19T00:08:41;36.20;;;23.07;;
21601;SDS011;10963;50.934;4.668;2023-04-19T00:11:08;38.63;;;23.10;;
21601;SDS011;10963;50.934;4.668;2023-04-19T00:13:36;39.23;;;23.90;;
21601;SDS011;10963;50.934;4.668;2023-04-19T00:16:04;39.40;;;22.97;;
21601;SDS011;10963;50.934;4.668;2023-04-19T00:18:30;34.90;;;22.77;;
21601;SDS011;10963;50.934;4.668;2023-04-19T00:20:59;36.73;;;22.30;;
21601;SDS011;10963;50.934;4.668;2023-04-19T00:23:24;38.33;;;23.77;;
21601;SDS011;10963;50.934;4.668;2023-04-19T00:25:55;42.13;;;24.00;;
21601;SDS011;10963;50.934;4.668;2023-04-19T00:28:23;38.33;;;23.87;;
21601;SDS011;10963;50.934;4.668;2023-04-19T00:30:51;43.37;;;24.80;;
21601;SDS011;10963;50.934;4.668;2023-04-19T00:33:17;36.10;;;22.93;;
21601;SDS011;10963;50.934;4.668;2023-04-19T00:35:45;39.97;;;23.10;;
21601;SDS011;10963;50.934;4.668;2023-04-19T00:38:13;39.57;;;23.37;;
21601;SDS011;10963;50.934;4.668;2023-04-19T00:40:39;40.67;;;24.20;;
21601;SDS011;10963;50.934;4.668;2023-04-19T00:43:05;38.10;;;23.70;;
21601;SDS011;10963;50.934;4.668;2023-04-19T00:45:31;35.83;;;23.60;;
21601;SDS011;10963;50.934;4.668;2023-04-19T00:47:59;40.87;;;24.43;;
21601;SDS011;10963;50.934;4.668;2023-04-19T00:50:25;38.33;;;23.37;;
21601;SDS011;10963;50.934;4.668;2023-04-19T00:52:51;42.73;;;24.90;;
21601;SDS011;10963;50.934;4.668;2023-04-19T00:55:22;41.93;;;25.13;;
21601;SDS011;10963;50.934;4.668;2023-04-19T00:57:49;39.33;;;24.13;;
21601;SDS011;10963;50.934;4.668;2023-04-19T01:00:16;39.17;;;24.60;;
21601;SDS011;10963;50.934;4.668;2023-04-19T01:02:44;41.57;;;25.20;;
21601;SDS011;10963;50.934;4.668;2023-04-19T01:05:10;40.17;;;23.83;;
21601;SDS011;10963;50.934;4.668;2023-04-19T01:07:36;41.63;;;24.20;;
21601;SDS011;10963;50.934;4.668;2023-04-19T01:10:02;44.47;;;25.00;;
21601;SDS011;10963;50.934;4.668;2023-04-19T01:12:28;40.37;;;24.10;;
21601;SDS011;10963;50.934;4.668;2023-04-19T01:14:53;42.07;;;24.23;;
21601;SDS011;10963;50.934;4.668;2023-04-19T01:17:19;40.50;;;24.57;;
21601;SDS011;10963;50.934;4.668;2023-04-19T01:19:45;41.20;;;23.93;;
21601;SDS011;10963;50.934;4.668;2023-04-19T01:22:15;41.73;;;24.97;;
21601;SDS011;10963;50.934;4.668;2023-04-19T01:24:43;42.30;;;24.50;;
21601;SDS011;10963;50.934;4.668;2023-04-19T01:27:09;42.77;;;24.83;;
21601;SDS011;10963;50.934;4.668;2023-04-19T01:29:35;42.07;;;24.07;;
21601;SDS011;10963;50.934;4.668;2023-04-19T01:32:03;39.03;;;23.30;;
21601;SDS011;10963;50.934;4.668;2023-04-19T01:34:34;34.60;;;21.87;;
21601;SDS011;10963;50.934;4.668;2023-04-19T01:36:59;37.73;;;23.73;;
21601;SDS011;10963;50.934;4.668;2023-04-19T01:39:27;38.43;;;23.50;;
21601;SDS011;10963;50.934;4.668;2023-04-19T01:41:53;39.10;;;23.90;;
21601;SDS011;10963;50.934;4.668;2023-04-19T01:44:19;40.77;;;23.13;;
21601;SDS011;10963;50.934;4.668;2023-04-19T01:46:47;43.53;;;24.40;;
21601;SDS011;10963;50.934;4.668;2023-04-19T01:49:12;33.87;;;22.83;;
21601;SDS011;10963;50.934;4.668;2023-04-19T01:51:38;35.63;;;23.07;;
21601;SDS011;10963;50.934;4.668;2023-04-19T01:54:04;39.77;;;23.97;;
21601;SDS011;10963;50.934;4.668;2023-04-19T01:56:29;41.33;;;24.20;;
21601;SDS011;10963;50.934;4.668;2023-04-19T01:58:56;38.83;;;23.10;;
21601;SDS011;10963;50.934;4.668;2023-04-19T02:01:28;37.17;;;23.57;;
21601;SDS011;10963;50.934;4.668;2023-04-19T02:03:56;36.87;;;23.27;;
21601;SDS011;10963;50.934;4.668;2023-04-19T02:06:21;43.43;;;24.17;;
21601;SDS011;10963;50.934;4.668;2023-04-19T02:08:47;37.40;;;23.23;;
21601;SDS011;10963;50.934;4.668;2023-04-19T02:11:13;36.73;;;22.37;;
21601;SDS011;10963;50.934;4.668;2023-04-19T02:13:41;37.57;;;22.90;;
21601;SDS011;10963;50.934;4.668;2023-04-19T02:16:07;36.97;;;23.10;;
21601;SDS011;10963;50.934;4.668;2023-04-19T02:18:36;40.03;;;21.77;;
21601;SDS011;10963;50.934;4.668;2023-04-19T02:21:04;35.67;;;22.83;;
21601;SDS011;10963;50.934;4.668;2023-04-19T02:23:30;35.30;;;22.07;;
21601;SDS011;10963;50.934;4.668;2023-04-19T02:25:59;36.37;;;21.53;;
21601;SDS011;10963;50.934;4.668;2023-04-19T02:28:27;37.30;;;22.30;;
21601;SDS011;10963;50.934;4.668;2023-04-19T02:30:56;34.73;;;22.93;;
21601;SDS011;10963;50.934;4.668;2023-04-19T02:33:23;36.10;;;23.10;;
21601;SDS011;10963;50.934;4.668;2023-04-19T02:35:51;38.50;;;22.07;;
21601;SDS011;10963;50.934;4.668;2023-04-19T02:38:16;34.60;;;22.40;;
21601;SDS011;10963;50.934;4.668;2023-04-19T02:40:42;39.90;;;23.07;;
21601;SDS011;10963;50.934;4.668;2023-04-19T02:43:10;34.37;;;21.40;;
21601;SDS011;10963;50.934;4.668;2023-04-19T02:45:36;35.87;;;22.03;;
21601;SDS011;10963;50.934;4.668;2023-04-19T02:48:02;36.23;;;22.77;;
21601;SDS011;10963;50.934;4.668;2023-04-19T02:50:28;35.90;;;23.33;;
21601;SDS011;10963;50.934;4.668;2023-04-19T02:52:56;38.27;;;22.10;;
21601;SDS011;10963;50.934;4.668;2023-04-19T02:55:22;37.57;;;22.93;;
21601;SDS011;10963;50.934;4.668;2023-04-19T02:57:48;39.10;;;22.53;;
21601;SDS011;10963;50.934;4.668;2023-04-19T03:00:14;37.60;;;22.20;;
21601;SDS011;10963;50.934;4.668;2023-04-19T03:02:40;32.50;;;21.43;;
21601;SDS011;10963;50.934;4.668;2023-04-19T03:05:07;35.00;;;22.60;;
21601;SDS011;10963;50.934;4.668;2023-04-19T03:07:34;36.73;;;22.57;;
21601;SDS011;10963;50.934;4.668;2023-04-19T03:10:03;38.60;;;21.93;;
21601;SDS011;10963;50.934;4.668;2023-04-19T03:12:31;38.07;;;21.93;;
21601;SDS011;10963;50.934;4.668;2023-04-19T03:14:57;38.00;;;21.13;;
21601;SDS011;10963;50.934;4.668;2023-04-19T03:17:22;33.93;;;21.27;;
21601;SDS011;10963;50.934;4.668;2023-04-19T03:19:51;34.30;;;22.40;;
21601;SDS011;10963;50.934;4.668;2023-04-19T03:22:16;34.03;;;21.57;;
21601;SDS011;10963;50.934;4.668;2023-04-19T03:24:42;38.40;;;21.70;;
21601;SDS011;10963;50.934;4.668;2023-04-19T03:27:10;36.20;;;21.83;;
21601;SDS011;10963;50.934;4.668;2023-04-19T03:29:38;34.30;;;21.83;;
21601;SDS011;10963;50.934;4.668;2023-04-19T03:32:04;34.80;;;21.50;;
21601;SDS011;10963;50.934;4.668;2023-04-19T03:34:30;33.47;;;22.03;;
21601;SDS011;10963;50.934;4.668;2023-04-19T03:36:56;36.60;;;21.83;;
21601;SDS011;10963;50.934;4.668;2023-04-19T03:39:22;34.80;;;21.93;;
21601;SDS011;10963;50.934;4.668;2023-04-19T03:41:48;34.47;;;21.03;;
21601;SDS011;10963;50.934;4.668;2023-04-19T03:44:15;34.23;;;20.93;;
21601;SDS011;10963;50.934;4.668;2023-04-19T03:46:41;34.57;;;22.10;;
21601;SDS011;10963;50.934;4.668;2023-04-19T03:49:07;35.23;;;21.50;;
21601;SDS011;10963;50.934;4.668;2023-04-19T03:51:35;37.30;;;20.93;;
21601;SDS011;10963;50.934;4.668;2023-04-19T03:54:00;36.97;;;21.77;;
21601;SDS011;10963;50.934;4.668;2023-04-19T03:56:26;36.20;;;21.03;;
21601;SDS011;10963;50.934;4.668;2023-04-19T03:58:54;34.63;;;21.00;;
21601;SDS011;10963;50.934;4.668;2023-04-19T04:01:22;35.97;;;21.20;;
21601;SDS011;10963;50.934;4.668;2023-04-19T04:03:50;35.00;;;21.17;;
21601;SDS011;10963;50.934;4.668;2023-04-19T04:06:16;36.30;;;21.40;;
21601;SDS011;10963;50.934;4.668;2023-04-19T04:08:44;39.73;;;23.27;;
21601;SDS011;10963;50.934;4.668;2023-04-19T04:11:14;37.43;;;22.43;;
21601;SDS011;10963;50.934;4.668;2023-04-19T04:13:39;41.60;;;23.17;;
21601;SDS011;10963;50.934;4.668;2023-04-19T04:16:05;37.83;;;21.10;;
21601;SDS011;10963;50.934;4.668;2023-04-19T04:18:33;34.33;;;22.67;;
21601;SDS011;10963;50.934;4.668;2023-04-19T04:21:01;37.77;;;23.10;;
21601;SDS011;10963;50.934;4.668;2023-04-19T04:23:27;38.97;;;22.83;;
21601;SDS011;10963;50.934;4.668;2023-04-19T04:25:59;40.80;;;22.27;;
21601;SDS011;10963;50.934;4.668;2023-04-19T04:28:26;37.83;;;22.97;;
21601;SDS011;10963;50.934;4.668;2023-04-19T04:30:57;37.90;;;21.40;;
21601;SDS011;10963;50.934;4.668;2023-04-19T04:33:24;40.30;;;22.77;;
21601;SDS011;10963;50.934;4.668;2023-04-19T04:35:51;36.83;;;22.20;;
21601;SDS011;10963;50.934;4.668;2023-04-19T04:38:20;38.23;;;22.47;;
21601;SDS011;10963;50.934;4.668;2023-04-19T04:40:52;35.50;;;21.40;;
21601;SDS011;10963;50.934;4.668;2023-04-19T04:43:22;39.77;;;22.13;;
21601;SDS011;10963;50.934;4.668;2023-04-19T04:45:49;39.27;;;23.33;;
21601;SDS011;10963;50.934;4.668;2023-04-19T04:48:19;38.83;;;22.30;;
21601;SDS011;10963;50.934;4.668;2023-04-19T04:50:45;38.93;;;22.87;;
21601;SDS011;10963;50.934;4.668;2023-04-19T04:53:10;38.73;;;22.37;;
21601;SDS011;10963;50.934;4.668;2023-04-19T04:55:36;38.67;;;22.70;;
21601;SDS011;10963;50.934;4.668;2023-04-19T04:58:04;42.87;;;23.50;;
21601;SDS011;10963;50.934;4.668;2023-04-19T05:00:34;41.30;;;23.40;;
21601;SDS011;10963;50.934;4.668;2023-04-19T05:03:02;41.07;;;23.17;;
21601;SDS011;10963;50.934;4.668;2023-04-19T05:05:28;40.63;;;23.20;;
21601;SDS011;10963;50.934;4.668;2023-04-19T05:07:54;37.30;;;22.13;;
21601;SDS011;10963;50.934;4.668;2023-04-19T05:10:19;40.07;;;23.53;;
21601;SDS011;10963;50.934;4.668;2023-04-19T05:12:49;47.83;;;25.27;;
21601;SDS011;10963;50.934;4.668;2023-04-19T05:15:15;43.27;;;25.17;;
21601;SDS011;10963;50.934;4.668;2023-04-19T05:17:40;51.60;;;25.60;;
21601;SDS011;10963;50.934;4.668;2023-04-19T05:20:07;42.30;;;23.37;;
21601;SDS011;10963;50.934;4.668;2023-04-19T05:22:38;37.00;;;24.80;;
21601;SDS011;10963;50.934;4.668;2023-04-19T05:25:04;44.17;;;24.90;;
21601;SDS011;10963;50.934;4.668;2023-04-19T05:27:33;45.23;;;24.20;;
21601;SDS011;10963;50.934;4.668;2023-04-19T05:29:59;48.00;;;25.63;;
21601;SDS011;10963;50.934;4.668;2023-04-19T05:32:25;43.57;;;24.70;;
21601;SDS011;10963;50.934;4.668;2023-04-19T05:34:51;44.43;;;25.13;;
21601;SDS011;10963;50.934;4.668;2023-04-19T05:37:19;45.87;;;25.63;;
21601;SDS011;10963;50.934;4.668;2023-04-19T05:39:45;42.17;;;25.80;;
21601;SDS011;10963;50.934;4.668;2023-04-19T05:42:11;44.77;;;24.80;;
21601;SDS011;10963;50.934;4.668;2023-04-19T05:44:36;44.63;;;25.40;;
21601;SDS011;10963;50.934;4.668;2023-04-19T05:47:07;42.37;;;25.77;;
21601;SDS011;10963;50.934;4.668;2023-04-19T05:49:36;40.37;;;24.23;;
21601;SDS011;10963;50.934;4.668;2023-04-19T05:52:01;44.47;;;24.23;;
21601;SDS011;10963;50.934;4.668;2023-04-19T05:54:27;45.53;;;24.10;;
21601;SDS011;10963;50.934;4.668;2023-04-19T05:56:58;43.23;;;23.90;;
21601;SDS011;10963;50.934;4.668;2023-04-19T05:59:23;39.73;;;22.77;;
21601;SDS011;10963;50.934;4.668;2023-04-19T06:01:50;41.63;;;24.37;;
21601;SDS011;10963;50.934;4.668;2023-04-19T06:04:19;35.53;;;22.93;;
21601;SDS011;10963;50.934;4.668;2023-04-19T06:06:47;38.83;;;24.00;;
21601;SDS011;10963;50.934;4.668;2023-04-19T06:09:12;41.37;;;23.80;;
21601;SDS011;10963;50.934;4.668;2023-04-19T06:11:39;45.17;;;23.33;;
21601;SDS011;10963;50.934;4.668;2023-04-19T06:14:05;40.13;;;25.03;;
21601;SDS011;10963;50.934;4.668;2023-04-19T06:16:30;39.77;;;24.33;;
21601;SDS011;10963;50.934;4.668;2023-04-19T06:18:56;37.80;;;23.07;;
21601;SDS011;10963;50.934;4.668;2023-04-19T06:21:24;43.23;;;23.67;;
21601;SDS011;10963;50.934;4.668;2023-04-19T06:23:53;44.37;;;23.10;;
21601;SDS011;10963;50.934;4.668;2023-04-19T06:26:21;39.93;;;24.37;;
21601;SDS011;10963;50.934;4.668;2023-04-19T06:28:52;39.90;;;23.63;;
21601;SDS011;10963;50.934;4.668;2023-04-19T06:31:20;38.70;;;23.07;;
21601;SDS011;10963;50.934;4.668;2023-04-19T06:33:48;35.97;;;23.33;;
21601;SDS011;10963;50.934;4.668;2023-04-19T06:36:18;34.90;;;22.60;;
21601;SDS011;10963;50.934;4.668;2023-04-19T06:38:46;42.50;;;22.03;;
21601;SDS011;10963;50.934;4.668;2023-04-19T06:41:14;35.00;;;21.00;;
21601;SDS011;10963;50.934;4.668;2023-04-19T06:43:40;37.77;;;22.60;;
21601;SDS011;10963;50.934;4.668;2023-04-19T06:46:06;36.13;;;21.63;;
21601;SDS011;10963;50.934;4.668;2023-04-19T06:48:33;37.53;;;23.03;;
21601;SDS011;10963;50.934;4.668;2023-04-19T06:50:59;39.47;;;22.40;;
21601;SDS011;10963;50.934;4.668;2023-04-19T06:53:24;36.90;;;20.97;;
21601;SDS011;10963;50.934;4.668;2023-04-19T06:56:00;35.57;;;22.40;;
21601;SDS011;10963;50.934;4.668;2023-04-19T06:58:26;36.90;;;22.00;;
21601;SDS011;10963;50.934;4.668;2023-04-19T07:00:53;31.60;;;20.40;;
21601;SDS011;10963;50.934;4.668;2023-04-19T07:03:19;33.77;;;21.10;;
21601;SDS011;10963;50.934;4.668;2023-04-19T07:05:47;33.53;;;20.53;;
21601;SDS011;10963;50.934;4.668;2023-04-19T07:08:13;32.73;;;20.70;;
21601;SDS011;10963;50.934;4.668;2023-04-19T07:10:39;35.87;;;21.87;;
21601;SDS011;10963;50.934;4.668;2023-04-19T07:13:07;34.03;;;20.90;;
21601;SDS011;10963;50.934;4.668;2023-04-19T07:15:37;31.30;;;20.27;;
21601;SDS011;10963;50.934;4.668;2023-04-19T07:18:03;36.27;;;20.37;;
21601;SDS011;10963;50.934;4.668;2023-04-19T07:22:58;29.07;;;19.87;;
21601;SDS011;10963;50.934;4.668;2023-04-19T07:25:24;30.83;;;19.10;;
21601;SDS011;10963;50.934;4.668;2023-04-19T07:27:54;28.33;;;18.80;;
21601;SDS011;10963;50.934;4.668;2023-04-19T07:30:20;28.27;;;18.63;;
21601;SDS011;10963;50.934;4.668;2023-04-19T07:32:49;31.63;;;18.57;;
21601;SDS011;10963;50.934;4.668;2023-04-19T07:35:15;28.50;;;18.10;;
21601;SDS011;10963;50.934;4.668;2023-04-19T07:37:42;26.93;;;15.87;;
21601;SDS011;10963;50.934;4.668;2023-04-19T07:40:07;26.67;;;17.20;;
21601;SDS011;10963;50.934;4.668;2023-04-19T07:42:33;26.93;;;17.10;;
21601;SDS011;10963;50.934;4.668;2023-04-19T07:44:59;28.97;;;16.90;;
21601;SDS011;10963;50.934;4.668;2023-04-19T07:47:25;26.83;;;17.10;;
21601;SDS011;10963;50.934;4.668;2023-04-19T07:49:52;24.37;;;16.87;;
21601;SDS011;10963;50.934;4.668;2023-04-19T07:52:19;24.50;;;15.57;;
21601;SDS011;10963;50.934;4.668;2023-04-19T07:54:50;28.57;;;16.67;;
21601;SDS011;10963;50.934;4.668;2023-04-19T07:57:20;24.10;;;15.33;;
21601;SDS011;10963;50.934;4.668;2023-04-19T07:59:46;25.57;;;15.33;;
21601;SDS011;10963;50.934;4.668;2023-04-19T08:02:12;20.97;;;14.30;;
21601;SDS011;10963;50.934;4.668;2023-04-19T08:04:41;22.40;;;14.37;;
21601;SDS011;10963;50.934;4.668;2023-04-19T08:07:06;23.23;;;14.87;;
21601;SDS011;10963;50.934;4.668;2023-04-19T08:09:35;25.50;;;14.57;;
21601;SDS011;10963;50.934;4.668;2023-04-19T08:12:01;22.60;;;13.37;;
21601;SDS011;10963;50.934;4.668;2023-04-19T08:14:30;21.87;;;13.50;;
21601;SDS011;10963;50.934;4.668;2023-04-19T08:16:58;21.13;;;14.17;;
21601;SDS011;10963;50.934;4.668;2023-04-19T08:19:31;20.77;;;13.03;;
21601;SDS011;10963;50.934;4.668;2023-04-19T08:21:56;20.55;;;14.77;;
21601;SDS011;10963;50.934;4.668;2023-04-19T08:24:28;19.90;;;13.03;;
21601;SDS011;10963;50.934;4.668;2023-04-19T08:26:55;17.23;;;12.20;;
21601;SDS011;10963;50.934;4.668;2023-04-19T08:29:25;19.10;;;12.23;;
21601;SDS011;10963;50.934;4.668;2023-04-19T08:31:51;18.70;;;12.73;;
21601;SDS011;10963;50.934;4.668;2023-04-19T08:34:16;15.73;;;12.70;;
21601;SDS011;10963;50.934;4.668;2023-04-19T08:36:42;21.03;;;13.70;;
21601;SDS011;10963;50.934;4.668;2023-04-19T08:39:08;20.37;;;13.60;;
21601;SDS011;10963;50.934;4.668;2023-04-19T08:41:41;20.47;;;13.27;;
21601;SDS011;10963;50.934;4.668;2023-04-19T08:44:09;20.80;;;13.13;;
21601;SDS011;10963;50.934;4.668;2023-04-19T08:46:41;16.23;;;11.00;;
21601;SDS011;10963;50.934;4.668;2023-04-19T08:49:09;19.93;;;12.83;;
21601;SDS011;10963;50.934;4.668;2023-04-19T08:51:41;20.27;;;12.80;;
21601;SDS011;10963;50.934;4.668;2023-04-19T08:54:08;14.10;;;11.17;;
21601;SDS011;10963;50.934;4.668;2023-04-19T08:56:34;20.40;;;12.60;;
21601;SDS011;10963;50.934;4.668;2023-04-19T08:59:01;19.03;;;12.77;;
21601;SDS011;10963;50.934;4.668;2023-04-19T09:01:29;15.23;;;12.00;;
21601;SDS011;10963;50.934;4.668;2023-04-19T09:03:54;16.17;;;12.10;;
21601;SDS011;10963;50.934;4.668;2023-04-19T09:06:20;17.67;;;11.90;;
21601;SDS011;10963;50.934;4.668;2023-04-19T09:08:46;15.90;;;11.17;;
21601;SDS011;10963;50.934;4.668;2023-04-19T09:11:11;15.23;;;10.40;;
21601;SDS011;10963;50.934;4.668;2023-04-19T09:13:37;17.13;;;10.83;;
21601;SDS011;10963;50.934;4.668;2023-04-19T09:16:21;14.27;;;10.17;;
21601;SDS011;10963;50.934;4.668;2023-04-19T09:18:55;13.13;;;9.37;;
21601;SDS011;10963;50.934;4.668;2023-04-19T09:21:28;17.53;;;10.50;;
21601;SDS011;10963;50.934;4.668;2023-04-19T09:23:55;14.47;;;9.60;;
21601;SDS011;10963;50.934;4.668;2023-04-19T09:26:22;16.17;;;10.30;;
21601;SDS011;10963;50.934;4.668;2023-04-19T09:28:54;14.27;;;9.50;;
21601;SDS011;10963;50.934;4.668;2023-04-19T09:31:22;13.70;;;9.37;;
21601;SDS011;10963;50.934;4.668;2023-04-19T09:33:48;12.77;;;9.27;;
21601;SDS011;10963;50.934;4.668;2023-04-19T09:36:25;15.43;;;9.30;;
21601;SDS011;10963;50.934;4.668;2023-04-19T09:38:56;14.20;;;9.13;;
21601;SDS011;10963;50.934;4.668;2023-04-19T09:41:22;13.50;;;9.07;;
21601;SDS011;10963;50.934;4.668;2023-04-19T09:43:51;11.80;;;9.20;;
21601;SDS011;10963;50.934;4.668;2023-04-19T09:46:33;12.60;;;8.63;;
21601;SDS011;10963;50.934;4.668;2023-04-19T09:51:43;10.97;;;8.40;;
21601;SDS011;10963;50.934;4.668;2023-04-19T09:54:16;12.77;;;9.30;;
21601;SDS011;10963;50.934;4.668;2023-04-19T09:56:43;12.83;;;8.83;;
21601;SDS011;10963;50.934;4.668;2023-04-19T09:59:09;14.27;;;9.23;;
21601;SDS011;10963;50.934;4.668;2023-04-19T10:01:45;13.90;;;9.33;;
21601;SDS011;10963;50.934;4.668;2023-04-19T10:04:13;10.97;;;8.37;;
21601;SDS011;10963;50.934;4.668;2023-04-19T10:06:49;11.73;;;8.73;;
21601;SDS011;10963;50.934;4.668;2023-04-19T10:09:18;13.80;;;8.80;;
21601;SDS011;10963;50.934;4.668;2023-04-19T10:11:48;11.17;;;8.63;;
21601;SDS011;10963;50.934;4.668;2023-04-19T10:14:21;13.30;;;9.57;;
21601;SDS011;10963;50.934;4.668;2023-04-19T10:16:53;11.70;;;8.33;;
21601;SDS011;10963;50.934;4.668;2023-04-19T10:19:20;14.03;;;8.53;;
21601;SDS011;10963;50.934;4.668;2023-04-19T10:21:47;11.03;;;8.07;;
21601;SDS011;10963;50.934;4.668;2023-04-19T10:24:16;11.40;;;8.17;;
21601;SDS011;10963;50.934;4.668;2023-04-19T10:32:37;10.90;;;8.90;;
21601;SDS011;10963;50.934;4.668;2023-04-19T10:35:08;13.20;;;8.30;;
21601;SDS011;10963;50.934;4.668;2023-04-19T10:37:40;14.20;;;8.80;;
21601;SDS011;10963;50.934;4.668;2023-04-19T10:43:23;13.53;;;8.57;;
21601;SDS011;10963;50.934;4.668;2023-04-19T10:45:51;10.67;;;7.77;;
21601;SDS011;10963;50.934;4.668;2023-04-19T10:53:47;14.10;;;8.07;;
21601;SDS011;10963;50.934;4.668;2023-04-19T10:56:17;12.80;;;8.20;;
21601;SDS011;10963;50.934;4.668;2023-04-19T11:01:39;14.10;;;8.97;;
21601;SDS011;10963;50.934;4.668;2023-04-19T11:09:36;14.87;;;8.47;;
21601;SDS011;10963;50.934;4.668;2023-04-19T11:14:39;14.87;;;9.60;;
21601;SDS011;10963;50.934;4.668;2023-04-19T11:17:25;16.43;;;9.87;;
21601;SDS011;10963;50.934;4.668;2023-04-19T11:19:57;16.50;;;10.20;;
21601;SDS011;10963;50.934;4.668;2023-04-19T11:22:33;16.07;;;10.37;;
21601;SDS011;10963;50.934;4.668;2023-04-19T11:27:48;16.50;;;9.33;;
21601;SDS011;10963;50.934;4.668;2023-04-19T11:30:17;13.43;;;9.00;;
21601;SDS011;10963;50.934;4.668;2023-04-19T11:32:52;17.13;;;8.40;;
21601;SDS011;10963;50.934;4.668;2023-04-19T11:35:20;10.30;;;7.73;;
21601;SDS011;10963;50.934;4.668;2023-04-19T11:37:50;16.20;;;9.50;;
21601;SDS011;10963;50.934;4.668;2023-04-19T11:40:17;13.83;;;8.70;;
21601;SDS011;10963;50.934;4.668;2023-04-19T11:42:43;12.27;;;8.07;;
21601;SDS011;10963;50.934;4.668;2023-04-19T11:45:10;15.50;;;7.90;;
21601;SDS011;10963;50.934;4.668;2023-04-19T11:47:46;10.10;;;7.87;;
21601;SDS011;10963;50.934;4.668;2023-04-19T11:50:32;11.50;;;8.00;;
21601;SDS011;10963;50.934;4.668;2023-04-19T11:53:14;11.97;;;7.57;;
21601;SDS011;10963;50.934;4.668;2023-04-19T11:58:42;13.73;;;7.13;;
21601;SDS011;10963;50.934;4.668;2023-04-19T12:01:09;11.97;;;7.43;;
21601;SDS011;10963;50.934;4.668;2023-04-19T12:03:51;9.97;;;6.90;;
21601;SDS011;10963;50.934;4.668;2023-04-19T12:08:52;12.57;;;7.50;;
21601;SDS011;10963;50.934;4.668;2023-04-19T12:11:20;10.50;;;7.30;;
21601;SDS011;10963;50.934;4.668;2023-04-19T12:14:10;10.23;;;6.70;;
21601;SDS011;10963;50.934;4.668;2023-04-19T12:16:40;13.53;;;7.00;;
21601;SDS011;10963;50.934;4.668;2023-04-19T12:19:10;13.70;;;6.77;;
21601;SDS011;10963;50.934;4.668;2023-04-19T12:21:40;11.37;;;6.87;;
21601;SDS011;10963;50.934;4.668;2023-04-19T12:24:06;11.93;;;7.10;;
21601;SDS011;10963;50.934;4.668;2023-04-19T12:26:31;12.00;;;6.70;;
21601;SDS011;10963;50.934;4.668;2023-04-19T12:29:00;12.83;;;7.00;;
21601;SDS011;10963;50.934;4.668;2023-04-19T12:31:29;10.93;;;7.03;;
21601;SDS011;10963;50.934;4.668;2023-04-19T12:33:58;12.47;;;6.90;;
21601;SDS011;10963;50.934;4.668;2023-04-19T12:36:24;13.13;;;7.17;;
21601;SDS011;10963;50.934;4.668;2023-04-19T12:38:50;16.40;;;7.37;;
21601;SDS011;10963;50.934;4.668;2023-04-19T12:41:15;8.60;;;5.67;;
21601;SDS011;10963;50.934;4.668;2023-04-19T12:43:41;11.13;;;5.97;;
21601;SDS011;10963;50.934;4.668;2023-04-19T12:46:07;8.20;;;6.30;;
21601;SDS011;10963;50.934;4.668;2023-04-19T12:48:35;11.90;;;6.13;;
21601;SDS011;10963;50.934;4.668;2023-04-19T12:51:03;13.90;;;6.17;;
21601;SDS011;10963;50.934;4.668;2023-04-19T12:53:32;8.43;;;6.30;;
21601;SDS011;10963;50.934;4.668;2023-04-19T12:55:58;12.00;;;5.60;;
21601;SDS011;10963;50.934;4.668;2023-04-19T12:58:26;8.63;;;5.57;;
21601;SDS011;10963;50.934;4.668;2023-04-19T13:00:54;9.13;;;5.97;;
21601;SDS011;10963;50.934;4.668;2023-04-19T13:03:20;9.83;;;6.80;;
21601;SDS011;10963;50.934;4.668;2023-04-19T13:05:46;12.30;;;7.00;;
21601;SDS011;10963;50.934;4.668;2023-04-19T13:08:14;9.20;;;6.33;;
21601;SDS011;10963;50.934;4.668;2023-04-19T13:10:45;11.63;;;6.00;;
21601;SDS011;10963;50.934;4.668;2023-04-19T13:13:10;9.53;;;6.90;;
21601;SDS011;10963;50.934;4.668;2023-04-19T13:15:36;9.13;;;6.23;;
21601;SDS011;10963;50.934;4.668;2023-04-19T13:18:02;10.83;;;6.30;;
21601;SDS011;10963;50.934;4.668;2023-04-19T13:20:28;7.57;;;5.63;;
21601;SDS011;10963;50.934;4.668;2023-04-19T13:22:56;7.20;;;4.73;;
21601;SDS011;10963;50.934;4.668;2023-04-19T13:25:24;7.43;;;4.93;;
21601;SDS011;10963;50.934;4.668;2023-04-19T13:27:49;7.10;;;5.00;;
21601;SDS011;10963;50.934;4.668;2023-04-19T13:30:15;6.77;;;4.70;;
21601;SDS011;10963;50.934;4.668;2023-04-19T13:32:43;6.30;;;3.20;;
21601;SDS011;10963;50.934;4.668;2023-04-19T13:35:09;5.73;;;3.50;;
21601;SDS011;10963;50.934;4.668;2023-04-19T13:37:35;6.77;;;3.03;;
21601;SDS011;10963;50.934;4.668;2023-04-19T13:40:00;4.10;;;3.10;;
21601;SDS011;10963;50.934;4.668;2023-04-19T13:42:27;9.73;;;3.53;;
21601;SDS011;10963;50.934;4.668;2023-04-19T13:44:53;5.07;;;3.27;;
21601;SDS011;10963;50.934;4.668;2023-04-19T13:47:21;5.00;;;3.47;;
21601;SDS011;10963;50.934;4.668;2023-04-19T13:49:47;5.40;;;3.40;;
21601;SDS011;10963;50.934;4.668;2023-04-19T13:52:16;5.57;;;3.53;;
21601;SDS011;10963;50.934;4.668;2023-04-19T13:54:46;6.33;;;2.90;;
21601;SDS011;10963;50.934;4.668;2023-04-19T13:57:11;5.53;;;3.07;;
21601;SDS011;10963;50.934;4.668;2023-04-19T13:59:39;5.83;;;3.40;;
21601;SDS011;10963;50.934;4.668;2023-04-19T14:02:05;5.60;;;3.40;;
21601;SDS011;10963;50.934;4.668;2023-04-19T14:04:31;9.17;;;3.10;;
21601;SDS011;10963;50.934;4.668;2023-04-19T14:06:59;4.03;;;2.60;;
21601;SDS011;10963;50.934;4.668;2023-04-19T14:09:25;6.33;;;3.87;;
21601;SDS011;10963;50.934;4.668;2023-04-19T14:11:51;8.20;;;3.17;;
21601;SDS011;10963;50.934;4.668;2023-04-19T14:14:17;6.97;;;3.37;;
21601;SDS011;10963;50.934;4.668;2023-04-19T14:16:47;3.80;;;3.00;;
21601;SDS011;10963;50.934;4.668;2023-04-19T14:19:13;3.93;;;3.07;;
21601;SDS011;10963;50.934;4.668;2023-04-19T14:21:38;5.77;;;3.33;;
21601;SDS011;10963;50.934;4.668;2023-04-19T14:24:09;6.40;;;3.53;;
21601;SDS011;10963;50.934;4.668;2023-04-19T14:26:37;6.07;;;4.10;;
21601;SDS011;10963;50.934;4.668;2023-04-19T14:29:02;6.90;;;4.50;;
21601;SDS011;10963;50.934;4.668;2023-04-19T14:31:28;6.97;;;3.67;;
21601;SDS011;10963;50.934;4.668;2023-04-19T14:33:54;7.20;;;3.33;;
21601;SDS011;10963;50.934;4.668;2023-04-19T14:36:20;4.77;;;3.37;;
21601;SDS011;10963;50.934;4.668;2023-04-19T14:38:48;6.63;;;3.60;;
21601;SDS011;10963;50.934;4.668;2023-04-19T14:41:16;4.80;;;3.20;;
21601;SDS011;10963;50.934;4.668;2023-04-19T14:43:41;6.13;;;3.20;;
21601;SDS011;10963;50.934;4.668;2023-04-19T14:46:09;7.93;;;3.57;;
21601;SDS011;10963;50.934;4.668;2023-04-19T14:48:37;8.70;;;3.40;;
21601;SDS011;10963;50.934;4.668;2023-04-19T14:51:03;4.53;;;3.37;;
21601;SDS011;10963;50.934;4.668;2023-04-19T14:53:29;7.30;;;3.33;;
21601;SDS011;10963;50.934;4.668;2023-04-19T14:55:55;5.20;;;3.00;;
21601;SDS011;10963;50.934;4.668;2023-04-19T14:58:20;7.50;;;3.30;;
21601;SDS011;10963;50.934;4.668;2023-04-19T15:00:46;3.50;;;2.73;;
21601;SDS011;10963;50.934;4.668;2023-04-19T15:03:14;5.73;;;3.00;;
21601;SDS011;10963;50.934;4.668;2023-04-19T15:05:42;4.20;;;2.73;;
21601;SDS011;10963;50.934;4.668;2023-04-19T15:08:08;6.03;;;3.33;;
21601;SDS011;10963;50.934;4.668;2023-04-19T15:10:33;5.77;;;3.33;;